sensor_id;sensor_type;location;lat;lon;timestamp;pressure;altitude;pressure_sealevel;temperature;humidity
62544;BME280;48597;49.030;1.822;2023-08-08T00:00:47;101119.75;;;22.38;47.43
62544;BME280;48597;49.030;1.822;2023-08-08T00:03:13;101114.47;;;22.36;47.32
62544;BME280;48597;49.030;1.822;2023-08-08T00:05:38;101119.41;;;22.36;47.44
62544;BME280;48597;49.030;1.822;2023-08-08T00:08:04;101117.00;;;22.34;47.10
62544;BME280;48597;49.030;1.822;2023-08-08T00:10:29;101107.59;;;22.34;47.38
62544;BME280;48597;49.030;1.822;2023-08-08T00:12:55;101108.88;;;22.33;47.19
62544;BME280;48597;49.030;1.822;2023-08-08T00:15:20;101112.22;;;22.31;47.09
62544;BME280;48597;49.030;1.822;2023-08-08T00:17:46;101108.06;;;22.32;47.25
62544;BME280;48597;49.030;1.822;2023-08-08T00:20:12;101100.72;;;22.31;47.20
62544;BME280;48597;49.030;1.822;2023-08-08T00:22:37;101102.00;;;22.30;47.26
62544;BME280;48597;49.030;1.822;2023-08-08T00:25:03;101099.56;;;22.29;47.49
62544;BME280;48597;49.030;1.822;2023-08-08T00:27:29;101098.78;;;22.28;47.08
62544;BME280;48597;49.030;1.822;2023-08-08T00:29:54;101097.16;;;22.27;47.27
62544;BME280;48597;49.030;1.822;2023-08-08T00:32:20;101098.41;;;22.26;47.23
62544;BME280;48597;49.030;1.822;2023-08-08T00:34:45;101092.69;;;22.26;47.27
62544;BME280;48597;49.030;1.822;2023-08-08T00:37:10;101096.00;;;22.25;47.12
62544;BME280;48597;49.030;1.822;2023-08-08T00:39:36;101093.13;;;22.25;47.26
62544;BME280;48597;49.030;1.822;2023-08-08T00:42:02;101090.72;;;22.23;47.38
62544;BME280;48597;49.030;1.822;2023-08-08T00:44:27;101090.72;;;22.23;47.18
62544;BME280;48597;49.030;1.822;2023-08-08T00:46:52;101087.06;;;22.23;47.22
62544;BME280;48597;49.030;1.822;2023-08-08T00:49:18;101084.63;;;22.21;47.20
62544;BME280;48597;49.030;1.822;2023-08-08T00:51:43;101083.03;;;22.20;47.15
62544;BME280;48597;49.030;1.822;2023-08-08T00:54:09;101079.38;;;22.20;47.12
62544;BME280;48597;49.030;1.822;2023-08-08T00:56:35;101072.84;;;22.19;47.06
62544;BME280;48597;49.030;1.822;2023-08-08T00:59:01;101075.72;;;22.19;47.08
62544;BME280;48597;49.030;1.822;2023-08-08T01:01:30;101069.97;;;22.19;47.12
62544;BME280;48597;49.030;1.822;2023-08-08T01:03:55;101074.09;;;22.18;47.00
62544;BME280;48597;49.030;1.822;2023-08-08T01:06:35;101067.56;;;22.18;47.04
62544;BME280;48597;49.030;1.822;2023-08-08T01:10:09;101065.94;;;22.17;47.40
62544;BME280;48597;49.030;1.822;2023-08-08T01:12:04;101070.06;;;22.16;47.25
62544;BME280;48597;49.030;1.822;2023-08-08T01:14:32;101069.28;;;22.15;47.29
62544;BME280;48597;49.030;1.822;2023-08-08T01:16:59;101077.09;;;22.15;47.28
62544;BME280;48597;49.030;1.822;2023-08-08T01:19:29;101078.34;;;22.14;47.26
62544;BME280;48597;49.030;1.822;2023-08-08T01:22:01;101067.66;;;22.14;47.26
62544;BME280;48597;49.030;1.822;2023-08-08T01:24:27;101065.72;;;22.11;47.12
62544;BME280;48597;49.030;1.822;2023-08-08T01:26:56;101064.91;;;22.10;47.23
62544;BME280;48597;49.030;1.822;2023-08-08T01:29:21;101061.22;;;22.10;46.86
62544;BME280;48597;49.030;1.822;2023-08-08T01:31:47;101064.09;;;22.10;47.19
62544;BME280;48597;49.030;1.822;2023-08-08T01:34:12;101062.50;;;22.09;46.99
62544;BME280;48597;49.030;1.822;2023-08-08T01:43:22;101042.53;;;22.05;47.27
62544;BME280;48597;49.030;1.822;2023-08-08T01:45:50;101054.84;;;22.06;47.15
62544;BME280;48597;49.030;1.822;2023-08-08T01:48:16;101046.22;;;22.06;47.02
62544;BME280;48597;49.030;1.822;2023-08-08T01:50:41;101047.47;;;22.05;47.36
62544;BME280;48597;49.030;1.822;2023-08-08T01:53:08;101047.47;;;22.05;46.95
62544;BME280;48597;49.030;1.822;2023-08-08T01:55:33;101040.94;;;22.04;47.35
62544;BME280;48597;49.030;1.822;2023-08-08T01:57:59;101042.19;;;22.03;46.88
62544;BME280;48597;49.030;1.822;2023-08-08T02:00:24;101044.28;;;22.03;47.19
62544;BME280;48597;49.030;1.822;2023-08-08T02:02:50;101043.47;;;22.02;46.95
62544;BME280;48597;49.030;1.822;2023-08-08T02:05:15;101049.19;;;22.02;47.14
62544;BME280;48597;49.030;1.822;2023-08-08T02:07:41;101052.06;;;22.02;47.09
62544;BME280;48597;49.030;1.822;2023-08-08T02:10:06;101041.84;;;22.01;47.29
62544;BME280;48597;49.030;1.822;2023-08-08T02:12:32;101034.50;;;22.00;47.22
62544;BME280;48597;49.030;1.822;2023-08-08T02:14:58;101037.38;;;22.00;46.96
62544;BME280;48597;49.030;1.822;2023-08-08T02:17:24;101037.38;;;22.00;47.36
62544;BME280;48597;49.030;1.822;2023-08-08T02:19:50;101039.44;;;22.00;46.81
62544;BME280;48597;49.030;1.822;2023-08-08T02:22:15;101026.34;;;21.99;47.32
62544;BME280;48597;49.030;1.822;2023-08-08T02:24:40;101030.47;;;21.98;47.01
62544;BME280;48597;49.030;1.822;2023-08-08T02:27:06;101038.25;;;21.97;47.24
62544;BME280;48597;49.030;1.822;2023-08-08T02:29:31;101034.59;;;21.97;47.01
62544;BME280;48597;49.030;1.822;2023-08-08T02:31:57;101034.59;;;21.97;47.12
62544;BME280;48597;49.030;1.822;2023-08-08T02:34:22;101032.97;;;21.96;47.07
62544;BME280;48597;49.030;1.822;2023-08-08T02:36:47;101040.78;;;21.95;46.99
62544;BME280;48597;49.030;1.822;2023-08-08T02:39:13;101031.38;;;21.95;46.92
62544;BME280;48597;49.030;1.822;2023-08-08T02:41:38;101029.78;;;21.94;47.18
62544;BME280;48597;49.030;1.822;2023-08-08T02:44:04;101029.78;;;21.94;47.10
62544;BME280;48597;49.030;1.822;2023-08-08T02:46:29;101020.38;;;21.93;47.24
62544;BME280;48597;49.030;1.822;2023-08-08T02:48:55;101022.44;;;21.93;47.04
62544;BME280;48597;49.030;1.822;2023-08-08T02:51:20;101027.38;;;21.92;47.24
62544;BME280;48597;49.030;1.822;2023-08-08T02:53:45;101036.78;;;21.93;46.92
62544;BME280;48597;49.030;1.822;2023-08-08T02:56:11;101032.31;;;21.92;46.88
62544;BME280;48597;49.030;1.822;2023-08-08T02:58:36;101033.13;;;21.92;47.00
62544;BME280;48597;49.030;1.822;2023-08-08T03:01:01;101034.38;;;21.91;47.10
62544;BME280;48597;49.030;1.822;2023-08-08T03:03:27;101036.44;;;21.91;47.23
62544;BME280;48597;49.030;1.822;2023-08-08T03:05:52;101039.31;;;21.91;47.03
62544;BME280;48597;49.030;1.822;2023-08-08T03:08:17;101036.91;;;21.89;46.80
62544;BME280;48597;49.030;1.822;2023-08-08T03:10:43;101038.97;;;21.89;46.75
62544;BME280;48597;49.030;1.822;2023-08-08T03:13:08;101040.56;;;21.90;47.08
62544;BME280;48597;49.030;1.822;2023-08-08T03:15:34;101044.72;;;21.89;47.16
62544;BME280;48597;49.030;1.822;2023-08-08T03:18:00;101041.84;;;21.89;46.83
62544;BME280;48597;49.030;1.822;2023-08-08T03:20:25;101039.44;;;21.87;47.09
62544;BME280;48597;49.030;1.822;2023-08-08T03:22:51;101027.94;;;21.87;46.90
62544;BME280;48597;49.030;1.822;2023-08-08T03:25:16;101029.22;;;21.86;46.91
62544;BME280;48597;49.030;1.822;2023-08-08T03:27:42;101026.34;;;21.86;46.97
62544;BME280;48597;49.030;1.822;2023-08-08T03:30:08;101034.16;;;21.86;46.79
62544;BME280;48597;49.030;1.822;2023-08-08T03:32:34;101032.53;;;21.85;46.94
62544;BME280;48597;49.030;1.822;2023-08-08T03:34:59;101038.28;;;21.85;46.74
62544;BME280;48597;49.030;1.822;2023-08-08T03:37:25;101034.59;;;21.84;46.85
62544;BME280;48597;49.030;1.822;2023-08-08T03:39:50;101042.41;;;21.84;46.78
62544;BME280;48597;49.030;1.822;2023-08-08T03:42:16;101044.03;;;21.85;47.00
62544;BME280;48597;49.030;1.822;2023-08-08T03:44:41;101041.59;;;21.83;47.03
62544;BME280;48597;49.030;1.822;2023-08-08T03:47:07;101038.75;;;21.83;46.91
62544;BME280;48597;49.030;1.822;2023-08-08T03:49:32;101035.06;;;21.83;46.89
62544;BME280;48597;49.030;1.822;2023-08-08T03:51:58;101035.06;;;21.83;46.82
62544;BME280;48597;49.030;1.822;2023-08-08T03:54:23;101030.59;;;21.82;46.93
62544;BME280;48597;49.030;1.822;2023-08-08T03:56:49;101018.78;;;21.80;46.75
62544;BME280;48597;49.030;1.822;2023-08-08T03:59:14;101026.13;;;21.81;46.95
62544;BME280;48597;49.030;1.822;2023-08-08T04:01:39;101027.41;;;21.80;46.88
62544;BME280;48597;49.030;1.822;2023-08-08T04:04:05;101024.53;;;21.80;46.98
62544;BME280;48597;49.030;1.822;2023-08-08T04:06:30;101022.91;;;21.79;47.15
62544;BME280;48597;49.030;1.822;2023-08-08T04:08:56;101016.38;;;21.78;47.08
62544;BME280;48597;49.030;1.822;2023-08-08T04:11:21;101021.31;;;21.78;46.86
62544;BME280;48597;49.030;1.822;2023-08-08T04:13:47;101027.06;;;21.78;46.80
62544;BME280;48597;49.030;1.822;2023-08-08T04:16:12;101036.91;;;21.77;46.74
62544;BME280;48597;49.030;1.822;2023-08-08T04:18:38;101036.91;;;21.77;46.84
62544;BME280;48597;49.030;1.822;2023-08-08T04:21:03;101039.78;;;21.77;46.57
62544;BME280;48597;49.030;1.822;2023-08-08T04:23:29;101041.84;;;21.76;46.87
62544;BME280;48597;49.030;1.822;2023-08-08T04:25:55;101038.19;;;21.75;46.74
62544;BME280;48597;49.030;1.822;2023-08-08T04:28:20;101053.78;;;21.74;46.83
62544;BME280;48597;49.030;1.822;2023-08-08T04:30:46;101056.66;;;21.74;47.05
62544;BME280;48597;49.030;1.822;2023-08-08T04:33:11;101055.03;;;21.73;47.01
62544;BME280;48597;49.030;1.822;2023-08-08T04:35:36;101055.03;;;21.73;46.79
62544;BME280;48597;49.030;1.822;2023-08-08T04:38:02;101042.78;;;21.73;46.59
62544;BME280;48597;49.030;1.822;2023-08-08T04:40:27;101045.63;;;21.73;46.71
62544;BME280;48597;49.030;1.822;2023-08-08T04:42:53;101050.56;;;21.72;46.77
62544;BME280;48597;49.030;1.822;2023-08-08T04:45:18;101045.63;;;21.73;46.71
62544;BME280;48597;49.030;1.822;2023-08-08T04:47:44;101045.63;;;21.73;46.81
62544;BME280;48597;49.030;1.822;2023-08-08T04:50:10;101050.56;;;21.72;46.69
62544;BME280;48597;49.030;1.822;2023-08-08T04:52:35;101051.84;;;21.71;46.84
62544;BME280;48597;49.030;1.822;2023-08-08T04:55:02;101052.63;;;21.72;46.86
62544;BME280;48597;49.030;1.822;2023-08-08T04:57:27;101044.47;;;21.70;46.76
62544;BME280;48597;49.030;1.822;2023-08-08T04:59:52;101047.34;;;21.70;46.78
62544;BME280;48597;49.030;1.822;2023-08-08T05:02:18;101041.63;;;21.70;46.83
62544;BME280;48597;49.030;1.822;2023-08-08T05:04:43;101047.81;;;21.69;46.81
62544;BME280;48597;49.030;1.822;2023-08-08T05:07:09;101042.06;;;21.69;46.79
62544;BME280;48597;49.030;1.822;2023-08-08T05:09:34;101040.81;;;21.70;46.65
62544;BME280;48597;49.030;1.822;2023-08-08T05:12:00;101039.19;;;21.69;46.78
62544;BME280;48597;49.030;1.822;2023-08-08T05:14:26;101044.13;;;21.68;46.46
62544;BME280;48597;49.030;1.822;2023-08-08T05:16:51;101033.47;;;21.69;46.62
62544;BME280;48597;49.030;1.822;2023-08-08T05:19:17;101032.66;;;21.68;46.64
62544;BME280;48597;49.030;1.822;2023-08-08T05:21:42;101033.16;;;21.67;46.61
62544;BME280;48597;49.030;1.822;2023-08-08T05:24:08;101038.88;;;21.67;46.80
62544;BME280;48597;49.030;1.822;2023-08-08T05:26:33;101034.41;;;21.66;46.68
62544;BME280;48597;49.030;1.822;2023-08-08T05:28:58;101039.34;;;21.65;46.75
62544;BME280;48597;49.030;1.822;2023-08-08T05:31:24;101049.56;;;21.66;46.78
62544;BME280;48597;49.030;1.822;2023-08-08T05:33:49;101052.88;;;21.65;46.60
62544;BME280;48597;49.030;1.822;2023-08-08T05:36:14;101043.47;;;21.64;46.89
62544;BME280;48597;49.030;1.822;2023-08-08T05:38:40;101049.22;;;21.64;47.09
62544;BME280;48597;49.030;1.822;2023-08-08T05:41:06;101040.59;;;21.64;47.00
62544;BME280;48597;49.030;1.822;2023-08-08T05:43:32;101045.06;;;21.65;46.89
62544;BME280;48597;49.030;1.822;2023-08-08T05:45:57;101039.00;;;21.63;47.06
62544;BME280;48597;49.030;1.822;2023-08-08T05:48:22;101043.13;;;21.62;47.11
62544;BME280;48597;49.030;1.822;2023-08-08T05:50:48;101050.47;;;21.63;47.18
62544;BME280;48597;49.030;1.822;2023-08-08T05:53:13;101049.66;;;21.63;47.31
62544;BME280;48597;49.030;1.822;2023-08-08T05:55:41;101048.84;;;21.62;47.21
62544;BME280;48597;49.030;1.822;2023-08-08T05:58:07;101043.13;;;21.62;47.25
62544;BME280;48597;49.030;1.822;2023-08-08T06:00:32;101048.06;;;21.62;47.40
62544;BME280;48597;49.030;1.822;2023-08-08T06:02:57;101054.59;;;21.62;47.37
62544;BME280;48597;49.030;1.822;2023-08-08T06:05:23;101067.69;;;21.63;47.20
62544;BME280;48597;49.030;1.822;2023-08-08T06:07:49;101071.00;;;21.62;47.54
62544;BME280;48597;49.030;1.822;2023-08-08T06:10:14;101066.06;;;21.62;47.46
62544;BME280;48597;49.030;1.822;2023-08-08T06:12:40;101070.19;;;21.61;47.59
62544;BME280;48597;49.030;1.822;2023-08-08T06:15:06;101067.31;;;21.61;47.35
62544;BME280;48597;49.030;1.822;2023-08-08T06:17:32;101071.81;;;21.62;47.79
62544;BME280;48597;49.030;1.822;2023-08-08T06:19:57;101077.53;;;21.62;47.61
62544;BME280;48597;49.030;1.822;2023-08-08T06:22:23;101073.88;;;21.62;47.86
62544;BME280;48597;49.030;1.822;2023-08-08T06:24:49;101080.06;;;21.60;48.00
62544;BME280;48597;49.030;1.822;2023-08-08T06:27:14;101075.94;;;21.61;48.40
62544;BME280;48597;49.030;1.822;2023-08-08T06:29:40;101079.59;;;21.62;48.46
62544;BME280;48597;49.030;1.822;2023-08-08T06:32:08;101066.06;;;21.62;48.23
62544;BME280;48597;49.030;1.822;2023-08-08T06:34:34;101072.59;;;21.63;48.69
62544;BME280;48597;49.030;1.822;2023-08-08T06:36:59;101067.69;;;21.63;48.53
62544;BME280;48597;49.030;1.822;2023-08-08T06:39:24;101061.94;;;21.63;48.81
62544;BME280;48597;49.030;1.822;2023-08-08T06:41:50;101059.41;;;21.65;48.82
62544;BME280;48597;49.030;1.822;2023-08-08T06:44:16;101059.41;;;21.65;49.08
62544;BME280;48597;49.030;1.822;2023-08-08T06:46:41;101061.50;;;21.65;48.85
62544;BME280;48597;49.030;1.822;2023-08-08T06:49:06;101054.50;;;21.66;48.95
62544;BME280;48597;49.030;1.822;2023-08-08T06:51:33;101063.09;;;21.66;49.11
62544;BME280;48597;49.030;1.822;2023-08-08T06:53:59;101058.16;;;21.66;49.22
62544;BME280;48597;49.030;1.822;2023-08-08T06:56:24;101045.44;;;21.67;49.18
62544;BME280;48597;49.030;1.822;2023-08-08T06:58:51;101056.91;;;21.67;49.05
62544;BME280;48597;49.030;1.822;2023-08-08T07:01:17;101052.75;;;21.68;49.21
62544;BME280;48597;49.030;1.822;2023-08-08T07:03:42;101049.09;;;21.68;49.82
62544;BME280;48597;49.030;1.822;2023-08-08T07:06:09;101058.47;;;21.68;49.88
62544;BME280;48597;49.030;1.822;2023-08-08T07:08:34;101051.47;;;21.69;50.46
62544;BME280;48597;49.030;1.822;2023-08-08T07:11:00;101041.25;;;21.68;51.04
62544;BME280;48597;49.030;1.822;2023-08-08T07:13:25;101042.06;;;21.69;50.43
62544;BME280;48597;49.030;1.822;2023-08-08T07:15:50;101042.88;;;21.69;50.38
62544;BME280;48597;49.030;1.822;2023-08-08T07:18:16;101049.41;;;21.70;50.39
62544;BME280;48597;49.030;1.822;2023-08-08T07:20:41;101044.84;;;21.72;50.30
62544;BME280;48597;49.030;1.822;2023-08-08T07:23:06;101048.16;;;21.71;50.45
62544;BME280;48597;49.030;1.822;2023-08-08T07:25:32;101048.50;;;21.73;50.32
62544;BME280;48597;49.030;1.822;2023-08-08T07:27:57;101049.31;;;21.73;50.19
62544;BME280;48597;49.030;1.822;2023-08-08T07:30:23;101055.03;;;21.73;50.13
62544;BME280;48597;49.030;1.822;2023-08-08T07:32:49;101057.91;;;21.73;50.43
62544;BME280;48597;49.030;1.822;2023-08-08T07:35:14;101053.78;;;21.74;50.25
62544;BME280;48597;49.030;1.822;2023-08-08T07:37:40;101050.91;;;21.74;50.34
62544;BME280;48597;49.030;1.822;2023-08-08T07:40:16;101040.59;;;21.77;50.00
62544;BME280;48597;49.030;1.822;2023-08-08T07:42:43;101037.72;;;21.77;49.97
62544;BME280;48597;49.030;1.822;2023-08-08T07:45:09;101043.00;;;21.79;50.06
62544;BME280;48597;49.030;1.822;2023-08-08T07:47:34;101031.53;;;21.79;50.06
62544;BME280;48597;49.030;1.822;2023-08-08T07:50:00;101030.25;;;21.80;50.14
62544;BME280;48597;49.030;1.822;2023-08-08T07:52:25;101035.53;;;21.81;50.16
62544;BME280;48597;49.030;1.822;2023-08-08T07:54:51;101034.25;;;21.82;50.15
62544;BME280;48597;49.030;1.822;2023-08-08T07:57:16;101036.31;;;21.82;50.07
62544;BME280;48597;49.030;1.822;2023-08-08T07:59:41;101039.53;;;21.84;50.03
62544;BME280;48597;49.030;1.822;2023-08-08T08:02:07;101028.88;;;21.84;49.99
62544;BME280;48597;49.030;1.822;2023-08-08T08:04:33;101027.59;;;21.85;49.98
62544;BME280;48597;49.030;1.822;2023-08-08T08:06:58;101024.72;;;21.85;49.87
62544;BME280;48597;49.030;1.822;2023-08-08T08:09:24;101017.28;;;21.88;49.81
62544;BME280;48597;49.030;1.822;2023-08-08T08:11:49;101014.41;;;21.88;49.63
62544;BME280;48597;49.030;1.822;2023-08-08T08:14:14;101014.75;;;21.90;49.79
62544;BME280;48597;49.030;1.822;2023-08-08T08:16:40;101014.75;;;21.90;49.76
62544;BME280;48597;49.030;1.822;2023-08-08T08:19:05;101017.97;;;21.92;49.74
62544;BME280;48597;49.030;1.822;2023-08-08T08:21:31;101021.66;;;21.92;49.68
62544;BME280;48597;49.030;1.822;2023-08-08T08:23:56;101025.63;;;21.95;49.89
62544;BME280;48597;49.030;1.822;2023-08-08T08:26:22;101039.19;;;21.94;49.55
62544;BME280;48597;49.030;1.822;2023-08-08T08:28:48;101044.47;;;21.96;49.72
62544;BME280;48597;49.030;1.822;2023-08-08T08:31:13;101030.91;;;21.96;49.79
62544;BME280;48597;49.030;1.822;2023-08-08T08:33:39;101041.94;;;21.98;49.55
62544;BME280;48597;49.030;1.822;2023-08-08T08:36:04;101041.94;;;21.98;49.52
62544;BME280;48597;49.030;1.822;2023-08-08T08:38:30;101039.44;;;22.00;49.75
62544;BME280;48597;49.030;1.822;2023-08-08T08:40:56;101041.06;;;22.01;49.46
62544;BME280;48597;49.030;1.822;2023-08-08T08:43:22;101041.84;;;22.01;49.69
62544;BME280;48597;49.030;1.822;2023-08-08T08:45:51;101044.28;;;22.03;49.83
62544;BME280;48597;49.030;1.822;2023-08-08T08:48:18;101038.53;;;22.03;49.66
62544;BME280;48597;49.030;1.822;2023-08-08T08:50:45;101040.94;;;22.04;49.58
62544;BME280;48597;49.030;1.822;2023-08-08T08:53:12;101041.75;;;22.05;49.73
62544;BME280;48597;49.030;1.822;2023-08-08T08:55:39;101034.75;;;22.06;49.57
62544;BME280;48597;49.030;1.822;2023-08-08T08:58:05;101032.66;;;22.06;49.62
62544;BME280;48597;49.030;1.822;2023-08-08T09:00:31;101027.72;;;22.07;49.57
62544;BME280;48597;49.030;1.822;2023-08-08T09:02:56;101026.44;;;22.08;49.65
62544;BME280;48597;49.030;1.822;2023-08-08T09:05:25;101030.91;;;22.09;49.43
62544;BME280;48597;49.030;1.822;2023-08-08T09:07:50;101037.47;;;22.09;49.55
62544;BME280;48597;49.030;1.822;2023-08-08T09:10:17;101026.78;;;22.10;49.77
62544;BME280;48597;49.030;1.822;2023-08-08T09:12:43;101034.13;;;22.11;49.80
62544;BME280;48597;49.030;1.822;2023-08-08T09:15:09;101030.00;;;22.12;50.00
62544;BME280;48597;49.030;1.822;2023-08-08T09:17:35;101027.94;;;22.13;49.94
62544;BME280;48597;49.030;1.822;2023-08-08T09:20:01;101025.88;;;22.13;49.62
62544;BME280;48597;49.030;1.822;2023-08-08T09:22:26;101027.47;;;22.14;49.72
62544;BME280;48597;49.030;1.822;2023-08-08T09:24:54;101017.59;;;22.15;49.74
62544;BME280;48597;49.030;1.822;2023-08-08T09:27:20;101007.72;;;22.16;49.66
62544;BME280;48597;49.030;1.822;2023-08-08T09:29:46;101012.19;;;22.17;49.81
62544;BME280;48597;49.030;1.822;2023-08-08T09:32:11;101003.59;;;22.17;49.76
62544;BME280;48597;49.030;1.822;2023-08-08T09:34:41;101000.25;;;22.19;49.45
62544;BME280;48597;49.030;1.822;2023-08-08T09:37:07;101000.25;;;22.19;49.50
62544;BME280;48597;49.030;1.822;2023-08-08T09:39:33;101003.44;;;22.21;49.73
62544;BME280;48597;49.030;1.822;2023-08-08T09:42:01;101002.63;;;22.20;49.70
62544;BME280;48597;49.030;1.822;2023-08-08T09:44:26;101003.44;;;22.21;49.77
62544;BME280;48597;49.030;1.822;2023-08-08T09:46:55;101009.53;;;22.23;49.78
62544;BME280;48597;49.030;1.822;2023-08-08T09:49:21;101001.72;;;22.23;49.66
62544;BME280;48597;49.030;1.822;2023-08-08T09:51:48;100998.84;;;22.23;49.69
62544;BME280;48597;49.030;1.822;2023-08-08T09:54:14;101009.88;;;22.25;49.77
62544;BME280;48597;49.030;1.822;2023-08-08T09:56:40;101000.00;;;22.26;49.72
62544;BME280;48597;49.030;1.822;2023-08-08T09:59:06;100994.25;;;22.26;49.80
62544;BME280;48597;49.030;1.822;2023-08-08T10:01:32;100995.03;;;22.26;49.76
62544;BME280;48597;49.030;1.822;2023-08-08T10:03:59;100993.78;;;22.27;50.01
62544;BME280;48597;49.030;1.822;2023-08-08T10:06:25;100996.66;;;22.27;49.91
62544;BME280;48597;49.030;1.822;2023-08-08T10:08:51;100983.91;;;22.28;49.73
62544;BME280;48597;49.030;1.822;2023-08-08T10:11:17;100983.91;;;22.28;49.88
62544;BME280;48597;49.030;1.822;2023-08-08T10:13:53;100984.25;;;22.30;50.06
62544;BME280;48597;49.030;1.822;2023-08-08T10:16:19;100985.06;;;22.31;49.96
62544;BME280;48597;49.030;1.822;2023-08-08T10:18:55;100998.94;;;22.32;49.84
62544;BME280;48597;49.030;1.822;2023-08-08T10:21:25;100985.84;;;22.31;49.86
62544;BME280;48597;49.030;1.822;2023-08-08T10:24:01;100991.13;;;22.33;50.04
62544;BME280;48597;49.030;1.822;2023-08-08T10:26:27;100986.16;;;22.33;49.79
62544;BME280;48597;49.030;1.822;2023-08-08T10:28:56;100991.44;;;22.35;49.90
62544;BME280;48597;49.030;1.822;2023-08-08T10:31:22;100979.16;;;22.34;49.93
62544;BME280;48597;49.030;1.822;2023-08-08T10:33:48;100992.25;;;22.35;50.29
62544;BME280;48597;49.030;1.822;2023-08-08T10:36:13;100993.06;;;22.36;49.85
62544;BME280;48597;49.030;1.822;2023-08-08T10:38:43;100988.91;;;22.37;49.92
62544;BME280;48597;49.030;1.822;2023-08-08T10:41:18;100989.72;;;22.37;50.23
62544;BME280;48597;49.030;1.822;2023-08-08T10:43:55;100998.34;;;22.37;49.92
62544;BME280;48597;49.030;1.822;2023-08-08T10:46:29;100992.59;;;22.37;50.12
62544;BME280;48597;49.030;1.822;2023-08-08T10:48:57;100992.94;;;22.39;50.07
62544;BME280;48597;49.030;1.822;2023-08-08T10:51:41;100998.69;;;22.39;50.02
62544;BME280;48597;49.030;1.822;2023-08-08T10:54:22;100990.06;;;22.39;50.22
62544;BME280;48597;49.030;1.822;2023-08-08T10:56:53;100985.91;;;22.40;50.17
62544;BME280;48597;49.030;1.822;2023-08-08T10:59:56;100981.78;;;22.41;50.11
62544;BME280;48597;49.030;1.822;2023-08-08T11:02:14;100983.84;;;22.41;50.59
62544;BME280;48597;49.030;1.822;2023-08-08T11:04:40;100980.19;;;22.40;50.14
62544;BME280;48597;49.030;1.822;2023-08-08T11:07:06;100969.03;;;22.42;50.34
62544;BME280;48597;49.030;1.822;2023-08-08T11:09:32;100972.69;;;22.43;50.15
62544;BME280;48597;49.030;1.822;2023-08-08T11:11:57;100965.69;;;22.44;50.49
62544;BME280;48597;49.030;1.822;2023-08-08T11:14:23;100967.28;;;22.45;50.35
62544;BME280;48597;49.030;1.822;2023-08-08T11:16:50;100961.56;;;22.45;50.33
62544;BME280;48597;49.030;1.822;2023-08-08T11:19:16;100957.38;;;22.46;50.37
62544;BME280;48597;49.030;1.822;2023-08-08T11:21:43;100949.56;;;22.46;50.22
62544;BME280;48597;49.030;1.822;2023-08-08T11:24:09;100950.38;;;22.47;50.24
62544;BME280;48597;49.030;1.822;2023-08-08T11:26:36;100958.19;;;22.46;50.17
62544;BME280;48597;49.030;1.822;2023-08-08T11:29:03;100949.91;;;22.49;50.54
62544;BME280;48597;49.030;1.822;2023-08-08T11:31:30;100953.59;;;22.49;50.57
62544;BME280;48597;49.030;1.822;2023-08-08T11:33:58;100946.56;;;22.50;50.58
62544;BME280;48597;49.030;1.822;2023-08-08T11:36:25;100945.31;;;22.51;50.46
62544;BME280;48597;49.030;1.822;2023-08-08T11:38:51;100945.31;;;22.51;50.46
62544;BME280;48597;49.030;1.822;2023-08-08T11:41:19;100951.06;;;22.51;50.35
62544;BME280;48597;49.030;1.822;2023-08-08T11:43:45;100946.09;;;22.52;50.47
62544;BME280;48597;49.030;1.822;2023-08-08T11:46:15;100935.41;;;22.52;50.24
62544;BME280;48597;49.030;1.822;2023-08-08T11:48:41;100933.34;;;22.53;50.20
62544;BME280;48597;49.030;1.822;2023-08-08T11:51:08;100919.78;;;22.53;50.41
62544;BME280;48597;49.030;1.822;2023-08-08T11:53:34;100915.66;;;22.54;50.34
62544;BME280;48597;49.030;1.822;2023-08-08T11:56:01;100916.44;;;22.55;50.38
62544;BME280;48597;49.030;1.822;2023-08-08T11:58:28;100930.81;;;22.55;50.09
62544;BME280;48597;49.030;1.822;2023-08-08T12:00:56;100927.47;;;22.56;50.35
62544;BME280;48597;49.030;1.822;2023-08-08T12:03:21;100918.06;;;22.56;50.35
62544;BME280;48597;49.030;1.822;2023-08-08T12:05:48;100913.91;;;22.57;50.26
62544;BME280;48597;49.030;1.822;2023-08-08T12:08:22;100915.53;;;22.58;50.11
62544;BME280;48597;49.030;1.822;2023-08-08T12:10:50;100912.66;;;22.58;50.26
62544;BME280;48597;49.030;1.822;2023-08-08T12:13:22;100905.63;;;22.59;50.29
62544;BME280;48597;49.030;1.822;2023-08-08T12:15:49;100910.09;;;22.60;50.27
62544;BME280;48597;49.030;1.822;2023-08-08T12:18:18;100902.28;;;22.60;50.03
62544;BME280;48597;49.030;1.822;2023-08-08T12:20:44;100903.06;;;22.61;50.22
62544;BME280;48597;49.030;1.822;2023-08-08T12:23:10;100895.25;;;22.61;49.94
62544;BME280;48597;49.030;1.822;2023-08-08T12:25:36;100898.94;;;22.62;50.25
62544;BME280;48597;49.030;1.822;2023-08-08T12:28:02;100900.53;;;22.63;50.03
62544;BME280;48597;49.030;1.822;2023-08-08T12:30:27;100886.16;;;22.63;50.16
62544;BME280;48597;49.030;1.822;2023-08-08T12:32:53;100899.25;;;22.64;49.99
62544;BME280;48597;49.030;1.822;2023-08-08T12:35:19;100891.44;;;22.64;50.10
62544;BME280;48597;49.030;1.822;2023-08-08T12:37:46;100887.78;;;22.64;50.19
62544;BME280;48597;49.030;1.822;2023-08-08T12:40:12;100880.75;;;22.65;49.92
62544;BME280;48597;49.030;1.822;2023-08-08T12:42:37;100881.09;;;22.67;50.23
62544;BME280;48597;49.030;1.822;2023-08-08T12:45:05;100885.25;;;22.66;50.19
62544;BME280;48597;49.030;1.822;2023-08-08T12:47:30;100878.22;;;22.67;50.21
62544;BME280;48597;49.030;1.822;2023-08-08T12:49:57;100876.94;;;22.68;50.18
62544;BME280;48597;49.030;1.822;2023-08-08T12:52:23;100874.88;;;22.68;50.20